Davis Monthan Air Force Base
KDMA : now visible

Airfield :











YOU CAN JOIN US ON...

 
LOGIN :

Register | Disclaimer

   EN    FR    IT 

 









Legend :    VFR   Marginal VFR   IFR   Intensive IFR   Very Intensive IFR
Visi :
Ceiling :
>= 8 km
>= 3000ft
5 to 8 km
1000 to 3000 ft
1500m to 5 km
500 to 1000 ft
800 to 1500m
200 to 500 ft
< 800m
< 200 ft
Symbols :   Thunderstorms  Fog  Heavy snow  Heavy precipitations  Wind > 20 kt






- Airport Elevation : 2704 ft


KDMA - Davis Monthan Air Force Base

CURRENT METAR :
  • 031258Z AUTO 12005KT 10SM FEW100 25/18 A3005 RMK AO2 SLP127 T02540183 $

EXPIRED METARs :
  • 031158Z AUTO 11003KT 10SM SCT110 26/19 A3004 RMK AO2 SLP123 T02570186 10281 20254 50003 $
  • 031058Z AUTO 16007KT 10SM CLR 26/19 A3003 RMK AO2 SLP120 T02590185 $

TAF TAF KDMA
Valid from the 03 at 06:00 until the 04 at 12:00 UTC


030600Z 0306/0412 12009KT 9999 SCT140 QNH3002INS
BECMG 0315/0316 VRB06KT 9999 FEW100 QNH3005INS
BECMG 0318/0319 30009KT 9999 SKC QNH2987INS TX39/0322Z TN24/0310Z
KZAB FIR / North America



MET'MAP, your aeronautical weather chart ! - Copyright ORBIFLY December 2007 - Disclaimer

ORBIFLY MET'MAP TEAM :

Programming & Development : Alexandra Zaïnal
Concept & original design : Baudouin d'Aumeries
Assistance for programming : Marc-Olivier Méhu
Technical & hardware support : Manuel Goepfert

Contact : metmap@orbifly.com




SOURCES & CREDITS :

   NOAA       Earth
Advisory